sensor_id;sensor_type;location;lat;lon;timestamp;temperature;humidity
76750;DHT22;66447;35.844;14.468;2023-07-24T00:06:35;38.05;-6.00
76750;DHT22;66447;35.844;14.468;2023-07-24T00:21:36;37.17;-6.00
76750;DHT22;66447;35.844;14.468;2023-07-24T00:36:37;37.85;-6.00
76750;DHT22;66447;35.844;14.468;2023-07-24T00:51:39;37.16;-6.00
76750;DHT22;66447;35.844;14.468;2023-07-24T01:06:40;36.78;-6.00
76750;DHT22;66447;35.844;14.468;2023-07-24T01:22:09;36.17;-6.00
76750;DHT22;66447;35.844;14.468;2023-07-24T01:37:12;36.34;-6.00
76750;DHT22;66447;35.844;14.468;2023-07-24T01:52:13;36.89;-6.00
76750;DHT22;66447;35.844;14.468;2023-07-24T02:07:14;36.63;-6.00
76750;DHT22;66447;35.844;14.468;2023-07-24T02:22:15;37.93;-6.00
76750;DHT22;66447;35.844;14.468;2023-07-24T02:37:16;37.12;-6.00
76750;DHT22;66447;35.844;14.468;2023-07-24T02:52:17;38.55;-6.00
76750;DHT22;66447;35.844;14.468;2023-07-24T03:07:18;37.45;-6.00
76750;DHT22;66447;35.844;14.468;2023-07-24T03:22:20;36.75;-6.00
76750;DHT22;66447;35.844;14.468;2023-07-24T03:37:21;37.30;-6.00
76750;DHT22;66447;35.844;14.468;2023-07-24T03:52:21;37.65;-6.00
76750;DHT22;66447;35.844;14.468;2023-07-24T04:07:22;36.96;-6.00
76750;DHT22;66447;35.844;14.468;2023-07-24T04:22:23;37.05;-6.00
76750;DHT22;66447;35.844;14.468;2023-07-24T04:37:24;36.98;-6.00
76750;DHT22;66447;35.844;14.468;2023-07-24T04:52:25;37.00;-6.00
76750;DHT22;66447;35.844;14.468;2023-07-24T05:07:25;38.55;-6.00
76750;DHT22;66447;35.844;14.468;2023-07-24T05:22:26;38.89;-6.00
76750;DHT22;66447;35.844;14.468;2023-07-24T05:37:27;39.40;-6.00
76750;DHT22;66447;35.844;14.468;2023-07-24T05:52:28;38.20;-6.00
76750;DHT22;66447;35.844;14.468;2023-07-24T06:07:29;38.91;-6.00
76750;DHT22;66447;35.844;14.468;2023-07-24T06:22:30;40.31;-6.00
76750;DHT22;66447;35.844;14.468;2023-07-24T06:37:30;39.69;-6.00
76750;DHT22;66447;35.844;14.468;2023-07-24T06:52:32;41.96;-6.00
76750;DHT22;66447;35.844;14.468;2023-07-24T07:07:33;46.65;-6.00
76750;DHT22;66447;35.844;14.468;2023-07-24T07:22:34;46.17;-6.00
76750;DHT22;66447;35.844;14.468;2023-07-24T07:37:35;45.68;-6.00
76750;DHT22;66447;35.844;14.468;2023-07-24T07:52:36;46.10;-6.00
76750;DHT22;66447;35.844;14.468;2023-07-24T08:07:37;46.27;-6.00
76750;DHT22;66447;35.844;14.468;2023-07-24T08:22:37;48.28;-6.00
76750;DHT22;66447;35.844;14.468;2023-07-24T08:37:42;47.32;-6.00
76750;DHT22;66447;35.844;14.468;2023-07-24T08:52:44;48.09;-6.00
76750;DHT22;66447;35.844;14.468;2023-07-24T09:07:47;48.81;-6.00
76750;DHT22;66447;35.844;14.468;2023-07-24T09:22:50;48.68;-6.00
76750;DHT22;66447;35.844;14.468;2023-07-24T09:37:51;48.74;-6.00
76750;DHT22;66447;35.844;14.468;2023-07-24T09:52:52;48.76;-6.00
76750;DHT22;66447;35.844;14.468;2023-07-24T10:07:54;48.93;-6.00
76750;DHT22;66447;35.844;14.468;2023-07-24T10:23:03;48.24;-6.00
76750;DHT22;66447;35.844;14.468;2023-07-24T10:38:04;50.01;-6.00
76750;DHT22;66447;35.844;14.468;2023-07-24T10:53:05;50.68;-6.00
76750;DHT22;66447;35.844;14.468;2023-07-24T11:08:19;50.00;-6.00
76750;DHT22;66447;35.844;14.468;2023-07-24T11:23:20;49.42;-6.00
76750;DHT22;66447;35.844;14.468;2023-07-24T11:38:21;48.37;-6.00
76750;DHT22;66447;35.844;14.468;2023-07-24T11:53:30;48.95;-6.00
76750;DHT22;66447;35.844;14.468;2023-07-24T12:08:35;50.43;-6.00
76750;DHT22;66447;35.844;14.468;2023-07-24T12:23:36;48.80;-6.00
76750;DHT22;66447;35.844;14.468;2023-07-24T12:38:37;51.80;-6.00
76750;DHT22;66447;35.844;14.468;2023-07-24T12:53:38;51.02;-6.00
76750;DHT22;66447;35.844;14.468;2023-07-24T13:08:38;49.85;-6.00
76750;DHT22;66447;35.844;14.468;2023-07-24T13:23:40;51.03;-6.00
76750;DHT22;66447;35.844;14.468;2023-07-24T13:38:41;51.30;-6.00
76750;DHT22;66447;35.844;14.468;2023-07-24T13:53:42;48.50;-6.00
76750;DHT22;66447;35.844;14.468;2023-07-24T14:08:43;49.44;-6.00
76750;DHT22;66447;35.844;14.468;2023-07-24T14:23:44;48.42;-6.00
76750;DHT22;66447;35.844;14.468;2023-07-24T14:38:45;50.02;-6.00
76750;DHT22;66447;35.844;14.468;2023-07-24T14:53:46;50.88;-6.00
76750;DHT22;66447;35.844;14.468;2023-07-24T15:08:47;50.08;-6.00
76750;DHT22;66447;35.844;14.468;2023-07-24T15:23:48;48.59;-6.00
76750;DHT22;66447;35.844;14.468;2023-07-24T15:38:52;47.52;-6.00
76750;DHT22;66447;35.844;14.468;2023-07-24T15:53:53;47.84;-6.00
76750;DHT22;66447;35.844;14.468;2023-07-24T16:08:54;45.73;-6.00
76750;DHT22;66447;35.844;14.468;2023-07-24T16:23:55;45.84;-6.00
76750;DHT22;66447;35.844;14.468;2023-07-24T16:38:56;43.82;-6.00
76750;DHT22;66447;35.844;14.468;2023-07-24T16:53:57;43.29;-6.00
76750;DHT22;66447;35.844;14.468;2023-07-24T17:08:58;42.14;-6.00
76750;DHT22;66447;35.844;14.468;2023-07-24T17:23:59;41.20;-6.00
76750;DHT22;66447;35.844;14.468;2023-07-24T17:38:59;39.84;-6.00
76750;DHT22;66447;35.844;14.468;2023-07-24T17:54:01;40.12;-6.00
76750;DHT22;66447;35.844;14.468;2023-07-24T18:09:02;39.21;-6.00
76750;DHT22;66447;35.844;14.468;2023-07-24T18:24:03;38.75;-6.00
76750;DHT22;66447;35.844;14.468;2023-07-24T18:39:05;38.93;-6.00
76750;DHT22;66447;35.844;14.468;2023-07-24T18:54:06;37.81;16.24
76750;DHT22;66447;35.844;14.468;2023-07-24T19:09:07;37.03;52.18
76750;DHT22;66447;35.844;14.468;2023-07-24T19:24:08;36.45;85.15
76750;DHT22;66447;35.844;14.468;2023-07-24T19:39:09;36.72;73.51
76750;DHT22;66447;35.844;14.468;2023-07-24T19:54:10;36.46;118.99
76750;DHT22;66447;35.844;14.468;2023-07-24T20:09:11;36.95;118.99
76750;DHT22;66447;35.844;14.468;2023-07-24T20:24:12;35.94;118.99
76750;DHT22;66447;35.844;14.468;2023-07-24T20:39:14;36.47;118.99
76750;DHT22;66447;35.844;14.468;2023-07-24T20:54:17;35.97;118.99
76750;DHT22;66447;35.844;14.468;2023-07-24T21:09:19;36.32;118.99
76750;DHT22;66447;35.844;14.468;2023-07-24T21:24:21;36.29;118.99
76750;DHT22;66447;35.844;14.468;2023-07-24T21:39:21;34.80;118.99
76750;DHT22;66447;35.844;14.468;2023-07-24T21:54:22;34.34;118.99
76750;DHT22;66447;35.844;14.468;2023-07-24T22:09:23;34.69;118.99
76750;DHT22;66447;35.844;14.468;2023-07-24T22:24:24;34.08;118.99
76750;DHT22;66447;35.844;14.468;2023-07-24T22:39:24;35.16;118.99
76750;DHT22;66447;35.844;14.468;2023-07-24T22:54:25;34.67;118.99
76750;DHT22;66447;35.844;14.468;2023-07-24T23:09:26;35.31;40.88
76750;DHT22;66447;35.844;14.468;2023-07-24T23:24:27;35.58;6.88
76750;DHT22;66447;35.844;14.468;2023-07-24T23:39:28;35.62;-2.89
76750;DHT22;66447;35.844;14.468;2023-07-24T23:54:29;35.64;-6.00
